Station: Newcastle Nobbys  

  Atmospheric Gas Attenuation - ITU Rec 676-11   ----------------- dB/100km -----------------
Date Time Temp RH % AH g/m3 Dew Point Wind Direction Speed kph Gust kph Barometer mB Rainfall Since 9am 24GHz 47GHz 76GHz 122GHz 134GHz 241GHz
08/05 12:30 19.3 39 6.47 5 26 37 1013.1 0 14.8 21.3 29.5 77.1 66.6 227.7
08/05 12:20 18.5 41 6.49 5 24 30 1013.1 0 14.9 21.5 29.9 78.0 67.5 230.8
08/05 12:10 17.8 40 6.07 4.3 30 37 1013.1 0 14.1 21.1 28.7 74.8 63.3 215.9
08/05 12:00 17.5 41 6.11 4.1 32 41 1013.1 0 14.2 21.2 28.9 75.5 64.0 218.3
08/05 11:50 17.6 42 6.3 4.5 33 41 1013.1 0 14.6 21.4 29.6 77.1 66.1 225.6
08/05 11:40 17 42 6.08 4 39 43 1013.1 0 14.1 21.2 29.0 75.7 64.0 218.4
08/05 11:30 17.3 40 5.89 3.6 35 43 1013.1 0 13.7 20.9 28.2 73.6 61.6 210.0
08/05 11:20 16.4 42 5.86 3.4 33 41 1013.1 0 13.7 21.1 28.5 74.2 62.0 211.1
08/05 11:10 16.2 43 5.93 3.6 28 32 1013.1 0 13.8 21.2 28.8 75.0 62.9 214.5
08/05 11:00 15.8 44 5.92 3.6 32 44 1013.1 0 13.8 21.3 28.9 75.3 63.1 215.1
08/05 10:50 15.9 46 6.23 4.3 37 43 1013.1 0 14.5 21.7 29.9 78.1 66.7 227.5
08/05 10:40 15.7 46 6.15 4.1 32 43 1013.1 0 14.3 21.6 29.7 77.5 65.9 224.8
08/05 10:30 15.1 46 5.93 3.6 35 46 1013.1 0 13.9 21.5 29.2 76.0 63.8 217.4
08/05 10:20 14.8 47 5.95 3.6 30 33 1013.1 0 13.9 21.6 29.3 76.5 64.3 219.0
08/05 10:10 14.7 47 5.92 3.5 33 37 1013.1 0 13.9 21.6 29.3 76.3 64.0 218.0
08/05 10:00 14.3 48 5.9 3.5 35 48 1013.1 0 13.8 21.6 29.3 76.5 64.1 218.3
08/05 09:50 13.8 48 5.72 3 41 46 1013.1 0 13.5 21.5 28.9 75.2 62.4 212.1
08/05 09:40 13.2 49 5.63 2.7 41 44 1013.1 0 13.3 21.5 28.8 74.9 61.8 210.0
08/05 09:30 13.2 52 5.97 3.6 37 50 1013.1 0 14.0 22.0 30.0 78.2 65.8 224.2
08/05 09:20 12.6 51 5.64 2.7 35 44 1013.1 0 13.3 21.6 29.0 75.6 62.3 211.9
08/05 09:10 12.1 50 5.36 2.2 37 43 1013.1 0 12.8 21.3 28.2 73.3 59.4 201.5
08/05 09:00 12 53 5.65 2.7 41 50 1013.1 0 13.4 21.8 29.3 76.3 62.9 213.9
08/05 08:50 11.9 54 5.72 2.9 37 43 1013.1 0 13.5 21.9 29.5 77.0 63.9 217.2
08/05 08:40 11.4 54 5.54 2.4 35 46 1013.1 0 13.2 21.8 29.1 75.7 62.1 210.9
08/05 08:30 10.9 53 5.27 1.7 39 52 1013.1 0 12.6 21.5 28.3 73.6 59.2 200.7
08/05 08:20 10.7 56 5.5 2.3 37 44 1013.1 0 13.1 21.9 29.2 76.0 62.1 211.0
08/05 08:10 10.9 60 5.97 3.4 44 52 1013.1 0 14.1 22.5 30.8 80.5 67.8 230.7
08/05 08:00 10.2 56 5.33 1.8 41 54 1013.1 0 12.8 21.7 28.7 74.8 60.5 205.0
08/05 07:50 9.9 57 5.32 1.8 41 46 1013.1 0 12.7 21.8 28.8 75.0 60.6 205.3
08/05 07:40 9.7 57 5.26 1.6 37 43 1013.1 0 12.6 21.8 28.6 74.6 60.0 203.3
08/05 07:30 9.7 60 5.53 2.3 35 48 1013.1 0 13.2 22.2 29.6 77.3 63.3 214.9
08/05 07:20 9.2 57 5.09 1.3 41 48 1013.1 0 12.3 21.6 28.2 73.4 58.3 197.2
08/05 07:10 9.2 59 5.27 1.6 33 43 1013.1 0 12.7 21.9 28.8 75.1 60.5 205.0
08/05 07:00 9 58 5.12 1.2 33 43 1013.1 0 12.4 21.7 28.4 73.8 58.8 199.0
08/05 06:50 9 60 5.29 1.6 39 46 1013.1 0 12.7 22.0 29.0 75.5 60.9 206.4
08/05 06:40 9 61 5.38 1.9 33 39 1013.1 0 12.9 22.1 29.3 76.4 62.0 210.3
08/05 06:30 8.9 61 5.35 1.8 35 44 1013.1 0 12.8 22.1 29.3 76.2 61.7 209.2
08/05 06:20 8.8 60 5.22 1.4 35 43 1013.1 0 12.6 21.9 28.8 75.0 60.2 203.8
08/05 06:10 8.7 59 5.1 1.3 32 37 1013.1 0 12.3 21.8 28.4 73.9 58.8 198.9
08/05 06:00 8.8 60 5.22 1.5 33 44 1013.1 0 12.6 21.9 28.8 75.0 60.2 203.8
08/05 05:50 8.8 60 5.22 1.4 28 33 1013.1 0 12.6 21.9 28.8 75.0 60.2 203.8
08/05 05:40 8.8 60 5.22 1.4 33 37 1013.1 0 12.6 21.9 28.8 75.0 60.2 203.8
08/05 05:30 8.8 59 5.14 1.2 28 35 1013.1 0 12.4 21.8 28.5 74.2 59.2 200.4
08/05 05:20 8.7 59 5.1 1.1 30 35 1013.1 0 12.3 21.8 28.4 73.9 58.8 198.9
08/05 05:10 8.8 57 4.96 0.7 26 30 1013.1 0 12.0 21.5 27.8 72.4 57.0 192.6
08/05 05:00 8.9 58 5.08 1.1 30 43 1013.1 0 12.3 21.7 28.2 73.5 58.4 197.5
08/05 04:50 8.9 58 5.08 1.1 32 35 1013.1 0 12.3 21.7 28.2 73.5 58.4 197.5
08/05 04:40 9 54 4.76 0.2 30 33 1013.1 0 11.6 21.2 27.0 70.3 54.4 183.6
08/05 04:30 9.2 55 4.91 0.6 32 41 1013.1 0 11.9 21.4 27.5 71.6 56.1 189.5
08/05 04:20 9.5 57 5.19 1.4 32 35 1013.1 0 12.5 21.7 28.4 74.1 59.3 200.8
08/05 04:10 9.3 53 4.76 0.2 28 32 1013.1 0 11.6 21.1 26.9 70.0 54.2 182.9
08/05 04:00 9.5 53 4.83 0.4 28 35 1013.1 0 11.7 21.2 27.1 70.5 54.9 185.4
08/05 03:50 9.5 55 5.01 0.9 26 30 1013.1 0 12.1 21.4 27.8 72.3 57.1 193.1
08/05 03:40 9.5 54 4.92 0.6 24 32 1013.1 0 11.9 21.3 27.5 71.4 56.0 189.2
08/05 03:30 9.8 54 5.01 0.9 24 33 1013.1 0 12.1 21.4 27.7 72.0 56.9 192.3
08/05 03:20 10 53 4.98 0.8 24 28 1013.1 0 12.0 21.3 27.5 71.6 56.4 190.6
08/05 03:10 9.9 51 4.76 0.2 26 30 1013.1 0 11.6 21.0 26.7 69.5 53.8 181.6
08/05 03:00 9.9 52 4.86 0.5 24 33 1013.1 0 11.8 21.1 27.1 70.5 55.0 185.8
08/05 02:50 9.9 52 4.86 0.5 22 28 1013.1 0 11.8 21.1 27.1 70.5 55.0 185.8
08/05 02:40 10 52 4.89 0.6 24 30 1013.1 0 11.8 21.1 27.2 70.7 55.3 186.8
08/05 02:30 10.1 51 4.82 0.4 24 28 1013.1 0 11.7 21.0 26.9 69.9 54.4 183.6
08/05 02:20 10.1 51 4.82 0.4 20 26 1013.1 0 11.7 21.0 26.9 69.9 54.4 183.6
08/05 02:10 10 51 4.79 0.3 22 26 1013.1 0 11.6 21.0 26.8 69.7 54.1 182.6
08/05 02:00 10 50 4.7 0.1 20 30 1013.1 0 11.4 20.9 26.5 68.8 53.0 178.8
08/05 01:50 10.2 51 4.85 0.5 22 28 1013.1 0 11.7 21.0 27.0 70.1 54.7 184.7
08/05 01:40 10.1 51 4.82 0.4 22 28 1013.1 0 11.7 21.0 26.9 69.9 54.4 183.6
08/05 01:30 10.2 52 4.95 0.8 22 28 1013.1 0 11.9 21.2 27.3 71.1 55.9 188.9
08/05 01:20 10.2 49 4.66 -0.1 22 24 1013.1 0 11.3 20.8 26.3 68.3 52.4 176.7
08/05 01:10 10.2 50 4.76 0.2 22 26 1013.1 0 11.5 20.9 26.6 69.3 53.6 180.9
08/05 01:00 10.2 50 4.76 0.3 20 26 1013.1 0 11.5 20.9 26.6 69.3 53.6 180.9
08/05 00:50 10.3 49 4.69 0 19 22 1013.1 0 11.4 20.8 26.4 68.5 52.7 177.7
08/05 00:40 10.5 49 4.75 0.2 20 28 1013.1 0 11.5 20.8 26.5 68.9 53.3 179.8
08/05 00:20 11.1 46 4.63 -0.1 20 24 1013.1 0 11.2 20.5 25.9 67.3 51.5 173.5
08/05 00:10 11.1 43 4.33 -1 20 28 1013.1 0 10.6 20.1 24.8 64.4 48.0 161.3
08/05 00:00 11.3 45 4.59 -0.2 26 35 1013.1 0 11.2 20.4 25.7 66.7 50.9 171.5
07/05 23:50 11.3 45 4.59 -0.2 30 35 1013.1 0 11.2 20.4 25.7 66.7 50.9 171.5
07/05 23:40 11.3 44 4.49 -0.5 32 37 1013.1 0 10.9 20.3 25.3 65.8 49.7 167.4
07/05 23:30 11.3 44 4.49 -0.5 30 43 1013.1 0 10.9 20.3 25.3 65.8 49.7 167.4
07/05 23:20 11.4 44 4.52 -0.4 32 35 1013.1 0 11.0 20.3 25.4 66.0 50.0 168.4
07/05 23:10 11.4 45 4.62 -0.1 24 28 1013.1 0 11.2 20.4 25.8 66.9 51.2 172.5
07/05 23:00 11.4 45 4.62 -0.1 24 32 1013.1 0 11.2 20.4 25.8 66.9 51.2 172.5
07/05 22:50 11.6 44 4.57 -0.3 26 32 1013.1 0 11.1 20.3 25.5 66.3 50.5 170.0
07/05 22:40 11.6 42 4.37 -0.9 26 32 1013.1 0 10.7 20.0 24.8 64.4 48.2 161.9
07/05 22:30 11.7 42 4.39 -0.8 30 37 1013.1 0 10.7 20.0 24.9 64.5 48.3 162.5
07/05 22:20 11.7 41 4.29 -1.1 32 37 1013.1 0 10.5 19.9 24.5 63.6 47.2 158.5
07/05 22:10 11.8 43 4.53 -0.4 24 28 1013.1 0 11.0 20.2 25.3 65.7 49.9 168.0
07/05 22:00 12 42 4.48 -0.5 30 43 1013.1 0 10.9 20.1 25.1 65.1 49.2 165.6
07/05 21:50 11.9 41 4.34 -1 28 37 1013.1 0 10.6 19.9 24.6 63.9 47.6 160.1
07/05 21:40 12 42 4.48 -0.5 30 39 1013.1 0 10.9 20.1 25.1 65.1 49.2 165.6
07/05 21:30 12.1 41 4.4 -0.7 28 33 1013.1 0 10.7 20.0 24.8 64.3 48.2 162.1
07/05 21:20 12.2 41 4.42 -0.7 26 30 1013.1 0 10.8 20.0 24.8 64.4 48.4 162.7
07/05 21:10 12.3 39 4.24 -1.3 26 30 1013.1 0 10.4 19.7 24.2 62.7 46.3 155.3
07/05 21:00 12.4 39 4.26 -1.1 26 35 1013.1 0 10.4 19.7 24.2 62.8 46.4 156.0
07/05 20:50 12.6 42 4.65 0 28 33 1013.1 0 11.2 20.2 25.5 66.2 50.8 171.2
07/05 20:40 12.7 37 4.12 -1.6 28 32 1013.1 0 10.1 19.5 23.7 61.3 44.7 149.9
07/05 20:30 12.9 40 4.51 -0.4 30 39 1013.1 0 10.9 20.0 24.9 64.7 49.0 164.9
07/05 20:20 13.1 40 4.56 -0.2 33 39 1013.1 0 11.0 20.0 25.0 65.0 49.4 166.5
07/05 20:10 13.2 37 4.25 -1.2 33 39 1013.1 0 10.4 19.5 23.9 62.1 45.9 154.1
07/05 20:00 13.3 38 4.39 -0.7 33 50 1013.1 0 10.7 19.7 24.4 63.3 47.4 159.4
07/05 19:50 13.3 37 4.27 -1.1 35 43 1013.1 0 10.4 19.5 24.0 62.2 46.0 154.7

Last Refresh: 08-May-2026 12:08:49

Bureau of Meteorology